< < Back
Terminal Aerodrome Forecast


Current Version              Previous Versions:   1  2  3  4  5  6  7  8  9  

Terminal Aerodrome Forecast

211
FTUS44 KMOB 050541
TAFPNS
TAF
KPNS 050541Z 0506/0606 36009KT P6SM SKC=



Latest METAR

717
SAUS70 KWBC 060700 RRG
MTRPNS
METAR KPNS 060653Z AUTO 02004KT 10SM CLR 04/M04 A3034 RMK AO2 SLP277
T00441039 TSNO


USA.gov is the U.S. government's official web portal to all federal, state and local government web resources and services.